Startpagina
METAR-TAF:

METAR-TAF

Vliegvelden :

Luchthaven Sjeremetjevo

Moskou-Sjeremetjevo, Rusland

breedte: 55-58N, lengte: 037-25E, hoogte: 190 m

Actueel weer

Dit bericht is 19 minuten geleden gemaakt, om 15:00 UTC
Wind 8 kt uit het zuiden
Temperatuur 27°C
Vochtigheid 32%
Druk 1015 hPa
Zicht 10 km of meer
geen wolken onder 1500 m en geen cumulonimbus

METAR: UUEE 181500Z 19004MPS CAVOK 27/09 Q1015 R24C/CLRD62 R24L/CLRD62 NOSIG

Tijdstip: 18:19 (15:19 UTC)

Verwachting

Dit bericht is 1 uur en het 19 minuten geleden gemaakt, om 14:00 UTC
Verwachting geldig van 18 om 15 UTC tot 19 om 15 UTC
Wind 2 kt uit variabele richting
Zicht 10 km of meer
geen wolken onder 1500 m en geen cumulonimbus
Wijzigt naar
van 19 om 04 UTC tot 19 om 08 UTC
Wind 8 kt uit het westzuidwesten

TAF: UUEE 181400Z 1815/1915 VRB01MPS CAVOK TX27/1911Z TN14/1901Z BECMG 1904/1908 24004MPS

Waarnemingen en weersverwachtingen van meer dan 4000 vliegvelden (METAR en TAF).

De beschikbare stations zijn de gele en rode punten op de kaart.

Ga met uw muis naar het station om de naam te zien.

Klik dan om waarnemingen en weersverwachtingen te zien.

kaart wijzigen: klik op de groene knoppen met een zwart kruis om in te zoomen, op de groene knop met een streepje om uit te zoomen of op de groene pijlen voor aangrenzende kaarten.


METAR-TAF: